ADDS METAR Data INFO
IDs: Format: Raw Decoded Include TAF

Data at: 1509 UTC 29 May 2017

METAR for:LFST (Strasbourg/Entzheim, --, FR)
Text:LFST 291500Z AUTO 21005KT 140V260 9999 ///TCU 34/14 Q1012 TEMPO FEW065CB
Temperature: 34.0°C ( 93°F)
Dewpoint: 14.0°C ( 57°F) [RH = 30%]
Pressure (altimeter):29.88 inches Hg (1012.0 mb)
Winds:from the SSW (210 degrees) at 6 MPH (5 knots; 2.6 m/s)
Visibility:6 or more sm (10+ km)

TAF for:LFST (Strasbourg/Entzheim, --, FR) issued at 1100 UTC 29 May 2017
Text:TAF LFST 291100Z 2912/3012 17008KT CAVOK
Forecast period:1200 UTC 29 May 2017 to 1200 UTC 30 May 2017
Forecast type:FROM: standard forecast or significant change
Winds:from the S (170 degrees) at 9 MPH (8 knots; 4.1 m/s)
Visibility:6 or more sm (10+ km)
Clouds:missing
Weather:NSW (no significant weather)
Text:TEMPO 2914/2918 FEW065CB
Forecast period:1400 to 1800 UTC 29 May 2017
Forecast type:TEMPORARY: The following changes expected for less than half the time period
Ceiling:at least 12,000 feet AGL
Clouds: few clouds at 6500 feet AGL
Text:TEMPO 2922/3003 VRB03KT
Forecast period:2200 UTC 29 May 2017 to 0300 UTC 30 May 2017
Forecast type:TEMPORARY: The following changes expected for less than half the time period
Winds:variable direction winds at 3 MPH (3 knots; 1.5 m/s)
Clouds:missing


Page loaded:  15:09 UTC  |   08:09 AM Pacific  |   09:09 AM Mountain  |   10:09 AM Central  |   11:09 AM Eastern

 

ADVISORIES

FORECASTS

FORECASTS

OBSERVATIONS

USER TOOLS

ABOUT US